Woodmoor, Colorado
Current Conditions -  °F | °C
As of 7:58 AM on Monday 22 Dec 2014 (Local Time) from KAFF Reporting Station
Clear Clear  
Wind Chill: 22°   Ceiling: Unl
Heat Index: 27°   Visibility: 10mi
Dew Point: 20°   Wind: 5mph
Humidity: 73%   Direction: 330°NNW
Pressure: 29.75"   Gusts: NA
Location:  39.0574°N, 104.903°W
Report Text: KAFF 221458Z AUTO 33004KT 10SM CLR M03/M07 A2975 RMK AO2 SLP077 60000 T10261069 51005
Loading
Personal Weather Stations






























Interactive Weather Map New forecast layout! Learn more

10-Day Weather Forecast

Advertisements
Track Severe Weather on mobile